Time;durP1;ratioP1;P1;durP2;ratioP2;P2;SDS_P1;SDS_P2;PMS_P1;PMS_P2;Temp;Humidity;BMP_temperature;BMP_pressure;BME280_temperature;BME280_humidity;BME280_pressure;Samples;Min_cycle;Max_cycle;Signal;HPM_P1;HPM_P2
2022/05/19 00:01:51;;;;;;;1999.90;999.90;;;19.00;99.90;;;;;;4918806;29;20024;-76
2022/05/19 00:04:27;;;;;;;1999.90;999.90;;;18.90;99.90;;;;;;4918868;29;20024;-82
2022/05/19 00:06:53;;;;;;;1999.90;999.90;;;18.90;99.90;;;;;;4918531;29;20028;-76
2022/05/19 00:09:20;;;;;;;1999.90;999.90;;;18.90;99.90;;;;;;4918940;29;20035;-76
2022/05/19 00:11:47;;;;;;;1999.90;999.90;;;18.80;99.90;;;;;;4917367;29;20511;-76
2022/05/19 00:14:13;;;;;;;1999.90;999.90;;;18.70;99.90;;;;;;4917930;29;20035;-76
2022/05/19 00:16:40;;;;;;;1999.90;999.90;;;18.70;99.90;;;;;;4918311;29;20028;-77
2022/05/19 00:19:06;;;;;;;1999.90;999.90;;;18.70;99.90;;;;;;4918097;29;20032;-76
2022/05/19 00:21:32;;;;;;;1999.90;999.90;;;18.70;99.90;;;;;;4918331;29;20031;-76
2022/05/19 00:23:58;;;;;;;1999.90;999.90;;;18.60;99.90;;;;;;4918106;29;20020;-82
2022/05/19 00:26:24;;;;;;;1999.90;999.90;;;18.60;99.90;;;;;;4918450;29;20052;-82
2022/05/19 00:28:50;;;;;;;1999.90;999.90;;;18.60;99.90;;;;;;4918692;29;20401;-77
2022/05/19 00:31:16;;;;;;;1999.90;999.90;;;18.60;99.90;;;;;;4914861;29;20044;-82
2022/05/19 00:33:43;;;;;;;1999.90;999.90;;;18.50;99.90;;;;;;4918737;29;20039;-82
2022/05/19 00:36:20;;;;;;;1999.90;999.90;;;18.50;99.90;;;;;;4917182;29;20024;-82
2022/05/19 00:38:46;;;;;;;1999.90;999.90;;;18.50;99.90;;;;;;4921999;29;20028;-76
2022/05/19 00:41:13;;;;;;;1999.90;999.90;;;18.40;99.90;;;;;;4925416;29;20024;-77
2022/05/19 00:43:42;;;;;;;1999.90;999.90;;;18.40;99.90;;;;;;4918510;29;20028;-82
2022/05/19 00:46:14;;;;;;;1999.90;999.90;;;18.40;99.90;;;;;;4918046;29;20451;-81
2022/05/19 00:48:51;;;;;;;1999.90;999.90;;;18.40;99.90;;;;;;4922673;29;20040;-82
2022/05/19 00:51:19;;;;;;;1999.90;999.90;;;18.40;99.90;;;;;;4916826;29;20068;-76
2022/05/19 00:53:57;;;;;;;1999.90;999.90;;;18.40;99.90;;;;;;4917850;29;20410;-82
2022/05/19 00:56:34;;;;;;;1999.90;999.90;;;18.30;99.90;;;;;;4915998;29;20051;-76
2022/05/19 00:59:06;;;;;;;1999.90;999.90;;;18.30;99.90;;;;;;4913769;29;20044;-76
2022/05/19 01:01:34;;;;;;;1999.90;999.90;;;18.20;99.90;;;;;;4917893;29;20032;-76
2022/05/19 01:04:32;;;;;;;1999.90;999.90;;;18.30;99.90;;;;;;4918309;29;20032;-76
2022/05/19 01:07:07;;;;;;;1999.90;999.90;;;18.20;99.90;;;;;;4916649;29;20531;-82
2022/05/19 01:09:35;;;;;;;1999.90;999.90;;;18.20;99.90;;;;;;4917464;29;20063;-76
2022/05/19 01:12:15;;;;;;;1999.90;999.90;;;18.10;99.90;;;;;;4917818;29;20032;-76
2022/05/19 01:14:40;;;;;;;1999.90;999.90;;;18.10;99.90;;;;;;4916918;29;20047;-76
2022/05/19 01:17:06;;;;;;;1999.90;999.90;;;18.00;99.90;;;;;;4917853;29;20449;-76
2022/05/19 01:19:40;;;;;;;1999.90;999.90;;;18.00;99.90;;;;;;4917526;29;20480;-83
2022/05/19 01:22:17;;;;;;;1999.90;999.90;;;17.90;99.90;;;;;;4917462;29;20020;-76
2022/05/19 01:25:20;;;;;;;1999.90;999.90;;;17.90;99.90;;;;;;4904366;29;20025;-76
2022/05/19 01:27:46;;;;;;;1999.90;999.90;;;17.90;99.90;;;;;;4916834;29;20021;-76
2022/05/19 01:30:12;;;;;;;1999.90;999.90;;;17.80;99.90;;;;;;4916593;29;20462;-82
2022/05/19 01:32:38;;;;;;;1999.90;999.90;;;17.80;99.90;;;;;;4917573;29;20042;-76
2022/05/19 01:35:05;;;;;;;1999.90;999.90;;;17.70;99.90;;;;;;4912709;29;20028;-76
2022/05/19 01:37:31;;;;;;;1999.90;999.90;;;17.70;99.90;;;;;;4912664;29;20035;-76
2022/05/19 01:40:26;;;;;;;1999.90;999.90;;;17.70;99.90;;;;;;4918084;29;20483;-82
2022/05/19 01:43:23;;;;;;;1999.90;999.90;;;17.70;99.90;;;;;;4913637;29;20040;-82
2022/05/19 01:45:48;;;;;;;1999.90;999.90;;;17.70;99.90;;;;;;4917549;29;20132;-79
2022/05/19 01:48:36;;;;;;;1999.90;999.90;;;17.70;99.90;;;;;;4920894;29;20059;-82
2022/05/19 01:51:05;;;;;;;1999.90;999.90;;;17.70;99.90;;;;;;4931750;29;20071;-76
2022/05/19 01:53:41;;;;;;;1999.90;999.90;;;17.70;99.90;;;;;;4916338;29;20403;-77
2022/05/19 01:56:10;;;;;;;1999.90;999.90;;;17.70;99.90;;;;;;4926751;29;20056;-76
2022/05/19 01:59:18;;;;;;;1999.90;999.90;;;17.70;99.90;;;;;;4909641;29;20032;-76
2022/05/19 02:01:51;;;;;;;1999.90;999.90;;;17.70;99.90;;;;;;4858907;29;20043;-76
2022/05/19 02:04:27;;;;;;;1999.90;999.90;;;17.80;99.90;;;;;;4897720;29;20033;-76
2022/05/19 02:06:57;;;;;;;1999.90;999.90;;;17.80;99.90;;;;;;4916727;29;20396;-81
2022/05/19 02:09:37;;;;;;;1999.90;999.90;;;17.70;99.90;;;;;;4916248;29;20395;-82
2022/05/19 02:12:05;;;;;;;1999.90;999.90;;;17.70;99.90;;;;;;4909734;29;20024;-82
2022/05/19 02:14:35;;;;;;;1999.90;999.90;;;17.70;99.90;;;;;;4916950;29;20526;-76
2022/05/19 02:17:04;;;;;;;1999.90;999.90;;;17.70;99.90;;;;;;4916879;29;20116;-76
2022/05/19 02:19:40;;;;;;;1999.90;999.90;;;17.70;99.90;;;;;;4916889;29;20517;-82
2022/05/19 02:22:09;;;;;;;1999.90;999.90;;;17.70;99.90;;;;;;4916168;29;20138;-76
2022/05/19 02:24:39;;;;;;;1999.90;999.90;;;17.70;99.90;;;;;;4916979;29;20091;-76
2022/05/19 02:27:32;;;;;;;1999.90;999.90;;;17.70;99.90;;;;;;4915547;29;20444;-82
2022/05/19 02:30:10;;;;;;;1999.90;999.90;;;17.70;99.90;;;;;;4915080;29;20028;-77
2022/05/19 02:32:37;;;;;;;1999.90;999.90;;;17.70;99.90;;;;;;4916014;29;20396;-82
2022/05/19 02:35:04;;;;;;;1999.90;999.90;;;17.70;99.90;;;;;;4916419;29;20498;-82
2022/05/19 02:37:30;;;;;;;1999.90;999.90;;;17.60;99.90;;;;;;4919293;29;20036;-82
2022/05/19 02:39:57;;;;;;;1999.90;999.90;;;17.60;99.90;;;;;;4918189;29;20114;-82
2022/05/19 02:42:23;;;;;;;1999.90;999.90;;;17.60;99.90;;;;;;4928008;29;20399;-82
2022/05/19 02:44:49;;;;;;;1999.90;999.90;;;17.60;99.90;;;;;;4920430;29;20020;-81
2022/05/19 02:47:14;;;;;;;1999.90;999.90;;;17.50;99.90;;;;;;4920530;29;20087;-76
2022/05/19 02:49:40;;;;;;;1999.90;999.90;;;17.50;99.90;;;;;;4924261;29;20041;-82
2022/05/19 02:52:06;;;;;;;1999.90;999.90;;;17.50;99.90;;;;;;4912074;29;20106;-76
2022/05/19 02:54:32;;;;;;;1999.90;999.90;;;17.40;99.90;;;;;;4924707;29;20515;-76
2022/05/19 02:56:57;;;;;;;1999.90;999.90;;;17.40;99.90;;;;;;4925809;29;20451;-76
2022/05/19 02:59:23;;;;;;;1999.90;999.90;;;17.50;99.90;;;;;;4919789;29;20035;-76
2022/05/19 03:01:49;;;;;;;1999.90;999.90;;;17.40;99.90;;;;;;4919251;29;20028;-76
2022/05/19 03:04:15;;;;;;;1999.90;999.90;;;17.40;99.90;;;;;;4920047;29;20028;-76
2022/05/19 03:06:40;;;;;;;1999.90;999.90;;;17.40;99.90;;;;;;4920261;29;20379;-76
2022/05/19 03:09:06;;;;;;;1999.90;999.90;;;17.40;99.90;;;;;;4920400;29;20085;-76
2022/05/19 03:11:33;;;;;;;1999.90;999.90;;;17.40;99.90;;;;;;4919726;29;20035;-76
2022/05/19 03:13:59;;;;;;;1999.90;999.90;;;17.40;99.90;;;;;;4919530;29;20538;-81
2022/05/19 03:16:25;;;;;;;1999.90;999.90;;;17.40;99.90;;;;;;4920222;29;20060;-76
2022/05/19 03:18:50;;;;;;;1999.90;999.90;;;17.40;99.90;;;;;;4919539;29;20028;-76
2022/05/19 03:21:16;;;;;;;1999.90;999.90;;;17.40;99.90;;;;;;4919633;29;20059;-82
2022/05/19 03:23:42;;;;;;;1999.90;999.90;;;17.40;99.90;;;;;;4915565;29;20500;-76
2022/05/19 03:26:08;;;;;;;1999.90;999.90;;;17.40;99.90;;;;;;4911920;29;20058;-76
2022/05/19 03:28:34;;;;;;;1999.90;999.90;;;17.40;99.90;;;;;;4919677;29;20376;-76
2022/05/19 03:31:00;;;;;;;1999.90;999.90;;;17.40;99.90;;;;;;4919061;29;20035;-76
2022/05/19 03:33:26;;;;;;;1999.90;999.90;;;17.40;99.90;;;;;;4920094;29;20028;-76
2022/05/19 03:35:56;;;;;;;1999.90;999.90;;;17.40;99.90;;;;;;4920215;29;20503;-82
2022/05/19 03:38:22;;;;;;;1999.90;999.90;;;17.40;99.90;;;;;;4921782;29;20476;-76
2022/05/19 03:40:48;;;;;;;1999.90;999.90;;;17.30;99.90;;;;;;4924163;29;20024;-76
2022/05/19 03:43:13;;;;;;;1999.90;999.90;;;17.30;99.90;;;;;;4919813;29;20480;-76
2022/05/19 03:45:39;;;;;;;1999.90;999.90;;;17.30;99.90;;;;;;4919631;29;20016;-77
2022/05/19 03:48:05;;;;;;;1999.90;999.90;;;17.30;99.90;;;;;;4922734;29;20035;-76
2022/05/19 03:50:31;;;;;;;1999.90;999.90;;;17.30;99.90;;;;;;4916564;29;20028;-82
2022/05/19 03:53:07;;;;;;;1999.90;999.90;;;17.30;99.90;;;;;;4919375;29;20103;-76
2022/05/19 03:55:33;;;;;;;1999.90;999.90;;;17.30;99.90;;;;;;4929929;29;20039;-76
2022/05/19 03:57:59;;;;;;;1999.90;999.90;;;17.30;99.90;;;;;;4919222;29;20028;-82
2022/05/19 04:00:25;;;;;;;1999.90;999.90;;;17.20;99.90;;;;;;4918206;29;20038;-76
2022/05/19 04:02:51;;;;;;;1999.90;999.90;;;17.30;99.90;;;;;;4911701;29;20511;-76
2022/05/19 04:05:16;;;;;;;1999.90;999.90;;;17.20;99.90;;;;;;4912727;29;20024;-81
2022/05/19 04:07:42;;;;;;;1999.90;999.90;;;17.20;99.90;;;;;;4919169;29;20099;-76
2022/05/19 04:10:11;;;;;;;1999.90;999.90;;;17.20;99.90;;;;;;4918855;29;20403;-76
2022/05/19 04:12:37;;;;;;;1999.90;999.90;;;17.20;99.90;;;;;;4912906;29;20032;-76
2022/05/19 04:15:04;;;;;;;1999.90;999.90;;;17.20;99.90;;;;;;4916643;29;20091;-76
2022/05/19 04:17:33;;;;;;;1999.90;999.90;;;17.10;99.90;;;;;;4918846;29;20436;-76
2022/05/19 04:20:01;;;;;;;1999.90;999.90;;;17.10;99.90;;;;;;4917221;29;20036;-82
2022/05/19 04:22:29;;;;;;;1999.90;999.90;;;17.10;99.90;;;;;;4914618;29;20063;-76
2022/05/19 04:24:55;;;;;;;1999.90;999.90;;;17.10;99.90;;;;;;4912841;29;20043;-82
2022/05/19 04:27:20;;;;;;;1999.90;999.90;;;17.10;99.90;;;;;;4917316;29;20071;-76
2022/05/19 04:29:48;;;;;;;1999.90;999.90;;;17.10;99.90;;;;;;4917239;29;20028;-76
2022/05/19 04:32:15;;;;;;;1999.90;999.90;;;17.10;99.90;;;;;;4907333;29;20402;-76
2022/05/19 04:34:42;;;;;;;1999.90;999.90;;;17.10;99.90;;;;;;4917319;29;20439;-76
2022/05/19 04:37:08;;;;;;;1999.90;999.90;;;17.10;99.90;;;;;;4910438;29;20491;-76
2022/05/19 04:39:34;;;;;;;1999.90;999.90;;;17.10;99.90;;;;;;4920662;29;20032;-76
2022/05/19 04:42:08;;;;;;;1999.90;999.90;;;17.10;99.90;;;;;;4925152;29;20115;-79
2022/05/19 04:44:34;;;;;;;1999.90;999.90;;;17.10;99.90;;;;;;4917024;29;20035;-76
2022/05/19 04:47:00;;;;;;;1999.90;999.90;;;17.10;99.90;;;;;;4918846;29;20847;-76
2022/05/19 04:49:26;;;;;;;1999.90;999.90;;;17.10;99.90;;;;;;4921910;29;20036;-76
2022/05/19 04:51:51;;;;;;;1999.90;999.90;;;17.20;99.90;;;;;;4918220;29;20036;-76
2022/05/19 04:54:17;;;;;;;1999.90;999.90;;;17.20;99.90;;;;;;4921381;29;20078;-76
2022/05/19 04:56:43;;;;;;;1999.90;999.90;;;17.20;99.90;;;;;;4924403;29;20503;-76
2022/05/19 04:59:14;;;;;;;1999.90;999.90;;;17.10;99.90;;;;;;4916309;29;20028;-76
2022/05/19 05:01:52;;;;;;;1999.90;999.90;;;17.20;99.90;;;;;;4918000;29;20488;-82
2022/05/19 05:04:19;;;;;;;1999.90;999.90;;;17.20;99.90;;;;;;4916596;29;20032;-77
2022/05/19 05:06:45;;;;;;;1999.90;999.90;;;17.10;99.90;;;;;;4905714;29;20384;-83
2022/05/19 05:09:11;;;;;;;1999.90;999.90;;;17.20;99.90;;;;;;4916463;29;20184;-75
2022/05/19 05:11:39;;;;;;;1999.90;999.90;;;17.20;99.90;;;;;;4915426;29;20055;-76
2022/05/19 05:14:04;;;;;;;1999.90;999.90;;;17.20;99.90;;;;;;4917529;29;20025;-82
2022/05/19 05:16:30;;;;;;;1999.90;999.90;;;17.10;99.90;;;;;;4917773;29;20039;-82
2022/05/19 05:18:56;;;;;;;1999.90;999.90;;;17.10;99.90;;;;;;4917430;29;20032;-81
2022/05/19 05:21:21;;;;;;;1999.90;999.90;;;17.10;99.90;;;;;;4917502;29;20024;-74
2022/05/19 05:23:47;;;;;;;1999.90;999.90;;;17.00;99.90;;;;;;4917603;29;20032;-75
2022/05/19 05:26:13;;;;;;;1999.90;999.90;;;16.90;99.90;;;;;;4916879;29;20024;-75
2022/05/19 05:28:38;;;;;;;1999.90;999.90;;;16.90;99.90;;;;;;4916641;29;20036;-82
2022/05/19 05:31:05;;;;;;;1999.90;999.90;;;16.90;99.90;;;;;;4917465;29;20032;-75
2022/05/19 05:33:31;;;;;;;1999.90;999.90;;;16.80;99.90;;;;;;4917001;29;20087;-81
2022/05/19 05:35:57;;;;;;;1999.90;999.90;;;16.80;99.90;;;;;;4915412;29;20028;-82
2022/05/19 05:38:23;;;;;;;1999.90;999.90;;;16.70;99.90;;;;;;4916213;29;20114;-75
2022/05/19 05:40:50;;;;;;;1999.90;999.90;;;16.70;99.90;;;;;;4929823;29;20083;-76
2022/05/19 05:43:18;;;;;;;1999.90;999.90;;;16.70;99.90;;;;;;4912728;29;20476;-80
2022/05/19 05:45:45;;;;;;;1999.90;999.90;;;16.70;99.90;;;;;;4915106;29;20384;-81
2022/05/19 05:48:11;;;;;;;1999.90;999.90;;;16.70;99.90;;;;;;4921577;29;20123;-80
2022/05/19 05:50:37;;;;;;;1999.90;999.90;;;16.70;99.90;;;;;;4916737;29;20079;-76
2022/05/19 05:53:04;;;;;;;1999.90;999.90;;;16.70;99.90;;;;;;4916399;29;20115;-79
2022/05/19 05:55:30;;;;;;;1999.90;999.90;;;16.70;99.90;;;;;;4926732;29;20043;-80
2022/05/19 05:57:59;;;;;;;1999.90;999.90;;;16.70;99.90;;;;;;4910158;29;20035;-81
2022/05/19 06:00:25;;;;;;;1999.90;999.90;;;16.70;99.90;;;;;;4915769;29;20035;-76
2022/05/19 06:02:51;;;;;;;1999.90;999.90;;;16.70;99.90;;;;;;4899585;29;20032;-79
2022/05/19 06:05:18;;;;;;;1999.90;999.90;;;16.80;99.90;;;;;;4916019;29;20028;-74
2022/05/19 06:07:44;;;;;;;1999.90;999.90;;;16.90;99.90;;;;;;4915345;29;20043;-74
2022/05/19 06:10:11;;;;;;;1999.90;999.90;;;17.00;99.90;;;;;;4923095;29;20032;-75
2022/05/19 06:12:37;;;;;;;1999.90;999.90;;;17.00;99.90;;;;;;4912023;29;20036;-74
2022/05/19 06:15:04;;;;;;;1999.90;999.90;;;17.10;99.90;;;;;;4911701;29;20033;-79
2022/05/19 06:17:30;;;;;;;1999.90;999.90;;;17.10;99.90;;;;;;4913189;29;20103;-80
2022/05/19 06:19:56;;;;;;;1999.90;999.90;;;17.20;99.90;;;;;;4914258;29;20107;-75
2022/05/19 06:22:22;;;;;;;1999.90;999.90;;;17.30;99.90;;;;;;4914308;29;20116;-80
2022/05/19 06:24:49;;;;;;;1999.90;999.90;;;17.40;99.90;;;;;;4913269;29;20032;-79
2022/05/19 06:27:15;;;;;;;1999.90;999.90;;;17.40;99.90;;;;;;4912841;29;20054;-80
2022/05/19 06:29:41;;;;;;;1999.90;999.90;;;17.50;99.90;;;;;;4916792;29;20092;-78
2022/05/19 06:32:07;;;;;;;1999.90;999.90;;;17.60;99.90;;;;;;4914809;29;20111;-80
2022/05/19 06:34:33;;;;;;;1999.90;999.90;;;17.60;99.90;;;;;;4914052;29;20160;-79
2022/05/19 06:36:58;;;;;;;1999.90;999.90;;;17.80;99.90;;;;;;4913819;29;20115;-79
2022/05/19 06:39:24;;;;;;;1999.90;999.90;;;17.90;99.90;;;;;;4913749;29;20040;-79
2022/05/19 06:42:02;;;;;;;1999.90;999.90;;;18.00;99.90;;;;;;4917053;29;20036;-73
2022/05/19 06:44:37;;;;;;;1999.90;999.90;;;18.10;99.90;;;;;;4914968;29;20032;-73
2022/05/19 06:47:10;;;;;;;1999.90;999.90;;;18.00;99.90;;;;;;4914634;29;20028;-80
2022/05/19 06:49:35;;;;;;;;;;;18.00;99.90;;;;;;4922529;29;20032;-80
2022/05/19 06:52:01;;;;;;;1999.90;999.90;;;18.00;99.90;;;;;;4914415;29;19961;-81
2022/05/19 06:54:27;;;;;;;1999.90;999.90;;;18.10;99.90;;;;;;4914580;29;20107;-76
2022/05/19 06:56:53;;;;;;;1999.90;999.90;;;18.20;99.90;;;;;;4906929;29;20072;-81
2022/05/19 06:59:18;;;;;;;1999.90;999.90;;;18.40;99.90;;;;;;4911954;29;20040;-80
2022/05/19 07:01:45;;;;;;;1999.90;999.90;;;18.60;99.90;;;;;;4914349;29;20067;-79
2022/05/19 07:04:12;;;;;;;1999.90;999.90;;;18.60;99.90;;;;;;4909416;29;20040;-78
2022/05/19 07:06:37;;;;;;;1999.90;999.90;;;18.70;99.90;;;;;;4909777;29;20020;-76
2022/05/19 07:09:03;;;;;;;1999.90;999.90;;;18.70;99.90;;;;;;4910050;29;20040;-81
2022/05/19 07:11:29;;;;;;;1999.90;999.90;;;18.70;99.90;;;;;;4913112;29;20056;-78
2022/05/19 07:14:01;;;;;;;1999.90;999.90;;;18.70;99.90;;;;;;4906419;29;20044;-81
2022/05/19 07:16:28;;;;;;;1999.90;999.90;;;18.80;99.90;;;;;;4912156;29;20063;-80
2022/05/19 07:21:42;;;;;;;1999.90;999.90;;;18.80;99.90;;;;;;4911774;29;20127;-81
2022/05/19 07:24:14;;;;;;;1999.90;999.90;;;19.00;99.90;;;;;;4909662;29;20031;-81
2022/05/19 07:26:41;;;;;;;1999.90;999.90;;;19.30;99.90;;;;;;4904270;29;20032;-83
2022/05/19 07:29:07;;;;;;;1999.90;999.90;;;19.50;99.90;;;;;;4915123;29;20044;-80
2022/05/19 07:31:33;;;;;;;1999.90;999.90;;;19.90;99.90;;;;;;4913289;29;20600;-82
2022/05/19 07:33:58;;;;;;;1999.90;999.90;;;20.00;99.90;;;;;;4912016;29;20098;-77
2022/05/19 07:36:24;;;;;;;1999.90;999.90;;;20.10;99.90;;;;;;4915263;29;20039;-83
2022/05/19 07:38:50;;;;;;;1999.90;999.90;;;19.90;99.90;;;;;;4916801;29;20036;-76
2022/05/19 07:41:16;;;;;;;1999.90;999.90;;;19.80;99.90;;;;;;4915372;29;20028;-76
2022/05/19 07:43:41;;;;;;;1999.90;999.90;;;19.80;99.90;;;;;;4917011;29;20036;-82
2022/05/19 07:46:11;;;;;;;1999.90;999.90;;;19.80;99.90;;;;;;4913907;29;20036;-78
2022/05/19 07:48:38;;;;;;;1999.90;999.90;;;19.90;99.90;;;;;;4912622;29;21812;-84
2022/05/19 07:51:04;;;;;;;1999.90;999.90;;;20.00;99.90;;;;;;4914620;29;20028;-82
2022/05/19 07:53:30;;;;;;;1999.90;999.90;;;20.20;99.90;;;;;;4914227;29;20095;-76
2022/05/19 07:55:56;;;;;;;1999.90;999.90;;;20.60;99.90;;;;;;4916500;29;20044;-77
2022/05/19 07:58:22;;;;;;;1999.90;999.90;;;21.10;99.90;;;;;;4916995;29;20411;-84
2022/05/19 08:00:52;;;;;;;1999.90;999.90;;;22.20;99.90;;;;;;4915426;29;20373;-80
2022/05/19 08:03:20;;;;;;;1999.90;999.90;;;23.20;99.90;;;;;;4914769;29;20437;-81
2022/05/19 08:05:46;;;;;;;1999.90;999.90;;;23.30;99.90;;;;;;4914496;29;20032;-77
2022/05/19 08:08:11;;;;;;;1999.90;999.90;;;23.70;99.90;;;;;;4916931;29;20032;-81
2022/05/19 08:10:37;;;;;;;1999.90;999.90;;;23.40;99.90;;;;;;4917082;29;20020;-84
2022/05/19 08:15:48;;;;;;;1999.90;999.90;;;23.30;99.90;;;;;;4916641;29;20035;-81
2022/05/19 08:18:19;;;;;;;1999.90;999.90;;;25.80;99.90;;;;;;4923859;29;20111;-78
2022/05/19 08:20:51;;;;;;;1999.90;999.90;;;28.50;99.70;;;;;;4914689;29;20064;-77
2022/05/19 08:23:32;;;;;;;1999.90;999.90;;;29.50;97.10;;;;;;4913456;29;20285;-83
2022/05/19 08:25:57;;;;;;;1999.90;999.90;;;29.80;96.00;;;;;;4914782;29;20095;-84
2022/05/19 08:28:29;;;;;;;1999.90;999.90;;;30.80;94.90;;;;;;4916029;29;20040;-84
2022/05/19 08:31:05;;;;;;;1999.90;999.90;;;30.80;94.50;;;;;;4915537;29;20083;-79
2022/05/19 08:33:32;;;;;;;1999.90;999.90;;;30.80;93.40;;;;;;4916936;29;20016;-85
2022/05/19 08:35:58;;;;;;;1999.90;999.90;;;31.40;92.60;;;;;;4917342;29;20027;-84
2022/05/19 08:38:24;;;;;;;1999.90;999.90;;;31.60;92.10;;;;;;4914619;29;20044;-81
2022/05/19 08:40:53;;;;;;;1999.90;999.90;;;31.80;91.60;;;;;;4916730;29;20025;-78
2022/05/19 08:43:24;;;;;;;1999.90;999.90;;;31.90;91.50;;;;;;4921756;29;20083;-78
2022/05/19 08:45:57;;;;;;;1999.90;999.90;;;32.20;91.00;;;;;;4924054;29;20027;-84
2022/05/19 08:48:25;;;;;;;1999.90;999.90;;;32.20;91.00;;;;;;4916593;29;20025;-83
2022/05/19 08:50:59;;;;;;;1999.90;999.90;;;32.30;91.00;;;;;;4917069;29;20033;-82
2022/05/19 08:53:29;;;;;;;1999.90;999.90;;;31.80;91.60;;;;;;4915427;29;20024;-80
2022/05/19 08:56:00;;;;;;;1999.90;999.90;;;31.70;91.40;;;;;;4927801;29;20044;-82
2022/05/19 08:58:31;;;;;;;1999.90;999.90;;;32.60;90.70;;;;;;4912996;29;20039;-85
2022/05/19 09:01:32;;;;;;;1999.90;999.90;;;33.00;90.00;;;;;;4914566;29;20034;-82
2022/05/19 09:04:07;;;;;;;1999.90;999.90;;;32.70;90.60;;;;;;4915341;29;20040;-84
2022/05/19 09:10:07;;;;;;;1999.90;999.90;;;33.00;89.70;;;;;;4925252;29;20044;-83
2022/05/19 09:12:36;;;;;;;1999.90;999.90;;;33.20;88.90;;;;;;4934760;28;20012;-82
2022/05/19 09:15:05;;;;;;;1999.90;999.90;;;33.20;88.00;;;;;;4938512;28;20013;-82
2022/05/19 09:17:35;;;;;;;1999.90;999.90;;;33.00;88.60;;;;;;4925713;29;20064;-81
2022/05/19 09:20:16;;;;;;;1999.90;999.90;;;33.20;88.70;;;;;;4911019;28;20032;-83
2022/05/19 09:22:42;;;;;;;1999.90;999.90;;;33.10;87.80;;;;;;4914369;29;20028;-83
2022/05/19 09:25:16;;;;;;;1999.90;999.90;;;33.20;87.80;;;;;;4913144;29;20496;-85
2022/05/19 09:27:44;;;;;;;1999.90;999.90;;;33.40;87.50;;;;;;4915227;29;20411;-79
2022/05/19 09:30:41;;;;;;;1999.90;999.90;;;33.10;87.70;;;;;;4915591;29;20031;-87
2022/05/19 09:33:14;;;;;;;1999.90;999.90;;;33.30;88.30;;;;;;4906701;29;20047;-86
2022/05/19 09:35:47;;;;;;;1999.90;999.90;;;33.40;87.80;;;;;;4914200;29;20032;-84
2022/05/19 09:38:26;;;;;;;1999.90;999.90;;;33.70;86.50;;;;;;4914196;29;20487;-81
2022/05/19 09:40:58;;;;;;;1999.90;999.90;;;34.10;85.30;;;;;;4909532;29;20032;-84
2022/05/19 09:43:33;;;;;;;1999.90;999.90;;;34.00;85.70;;;;;;4916974;29;20039;-82
2022/05/19 09:46:09;;;;;;;1999.90;999.90;;;34.20;85.10;;;;;;4923834;29;20015;-84
2022/05/19 09:48:41;;;;;;;1999.90;999.90;;;34.10;85.30;;;;;;4915410;29;20048;-85
2022/05/19 09:51:14;;;;;;;1999.90;999.90;;;34.50;86.60;;;;;;4914480;29;20036;-81
2022/05/19 09:53:47;;;;;;;1999.90;999.90;;;34.00;84.90;;;;;;4916154;29;20039;-79
2022/05/19 09:56:15;;;;;;;1999.90;999.90;;;34.00;84.60;;;;;;4920458;29;20584;-82
2022/05/19 09:58:47;;;;;;;1999.90;999.90;;;32.90;86.10;;;;;;4916719;29;20032;-82
2022/05/19 10:01:38;;;;;;;1999.90;999.90;;;32.00;88.00;;;;;;4915258;29;20083;-81
2022/05/19 10:04:32;;;;;;;1999.90;999.90;;;32.30;88.00;;;;;;4913377;29;20079;-84
2022/05/19 10:07:22;;;;;;;1999.90;999.90;;;32.70;87.90;;;;;;4902643;29;20024;-81
2022/05/19 10:09:48;;;;;;;1999.90;999.90;;;33.50;86.00;;;;;;4918074;29;20499;-87
2022/05/19 10:12:24;;;;;;;1999.90;999.90;;;34.10;85.60;;;;;;4905338;29;20527;-81
2022/05/19 10:15:02;;;;;;;1999.90;999.90;;;34.20;84.90;;;;;;4914843;29;20063;-82
2022/05/19 10:17:43;;;;;;;1999.90;999.90;;;33.80;85.00;;;;;;4916897;29;20019;-83
2022/05/19 10:20:21;;;;;;;1999.90;999.90;;;33.20;84.50;;;;;;4897137;29;20620;-80
2022/05/19 10:23:24;;;;;;;1999.90;999.90;;;33.30;85.00;;;;;;4912352;29;20511;-80
2022/05/19 10:26:20;;;;;;;1999.90;999.90;;;33.50;84.80;;;;;;4906473;29;20024;-83
2022/05/19 10:32:21;;;;;;;1999.90;999.90;;;34.10;86.00;;;;;;4912450;29;20579;-82
2022/05/19 10:35:07;;;;;;;1999.90;999.90;;;33.20;85.20;;;;;;4918659;29;20060;-82
2022/05/19 10:38:09;;;;;;;1999.90;999.90;;;32.90;84.80;;;;;;4918374;29;20045;-82
2022/05/19 10:40:59;;;;;;;1999.90;999.90;;;33.20;85.10;;;;;;4909417;29;20127;-82
2022/05/19 10:43:55;;;;;;;1999.90;999.90;;;33.40;84.40;;;;;;4912600;29;20269;-83
2022/05/19 10:46:23;;;;;;;1999.90;999.90;;;33.50;83.50;;;;;;4916958;29;20028;-81
2022/05/19 10:49:01;;;;;;;1999.90;999.90;;;33.20;84.00;;;;;;4908805;29;20043;-81
2022/05/19 10:51:53;;;;;;;1999.90;999.90;;;33.40;84.30;;;;;;4907136;29;20027;-79
2022/05/19 10:54:22;;;;;;;;;;;33.70;86.40;;;;;;4910308;29;20044;-82
2022/05/19 10:57:28;;;;;;;1999.90;999.90;;;33.20;84.00;;;;;;4908881;29;19923;-82
2022/05/19 11:00:02;;;;;;;1999.90;999.90;;;33.20;84.10;;;;;;4907726;29;20415;-82
2022/05/19 11:03:06;;;;;;;1999.90;999.90;;;33.60;83.90;;;;;;4914506;29;20033;-82
2022/05/19 11:05:44;;;;;;;1999.90;999.90;;;33.90;82.90;;;;;;4910599;29;20373;-83
2022/05/19 11:08:30;;;;;;;1999.90;999.90;;;33.50;82.20;;;;;;4911727;29;20408;-83
2022/05/19 11:11:27;;;;;;;1999.90;999.90;;;33.00;82.20;;;;;;4910465;29;20467;-79
2022/05/19 11:14:32;;;;;;;1999.90;999.90;;;32.70;82.30;;;;;;4911817;29;20024;-78
2022/05/19 11:17:09;;;;;;;1999.90;999.90;;;32.90;82.30;;;;;;4909378;29;20033;-78
2022/05/19 11:19:44;;;;;;;1999.90;999.90;;;33.00;82.20;;;;;;4913054;29;20490;-79
2022/05/19 11:22:13;;;;;;;1999.90;999.90;;;33.40;80.40;;;;;;4915443;29;20109;-83
2022/05/19 11:27:46;;;;;;;1999.90;999.90;;;33.60;79.70;;;;;;4914331;29;20104;-80
2022/05/19 11:30:20;;;;;;;1999.90;999.90;;;33.60;79.50;;;;;;4917509;29;20039;-83
2022/05/19 11:32:53;;;;;;;1999.90;999.90;;;32.90;80.60;;;;;;4917182;29;20432;-80
2022/05/19 11:35:38;;;;;;;1999.90;999.90;;;33.00;81.40;;;;;;4918060;29;20035;-84
2022/05/19 11:38:21;;;;;;;1999.90;999.90;;;33.40;81.40;;;;;;4909433;29;20047;-84
2022/05/19 11:40:57;;;;;;;1999.90;999.90;;;33.70;82.60;;;;;;4914957;29;20551;-78
2022/05/19 11:43:23;;;;;;;1999.90;999.90;;;34.10;82.90;;;;;;4917274;29;20032;-83
2022/05/19 11:45:54;;;;;;;1999.90;999.90;;;33.20;81.70;;;;;;4917562;29;20024;-82
2022/05/19 11:57:35;;;;;;;1999.90;999.90;;;32.20;86.00;;;;;;4918902;29;20899;-79
2022/05/19 12:00:04;;;;;;;1999.90;999.90;;;32.70;84.60;;;;;;4916090;29;20040;-81
2022/05/19 12:03:06;;;;;;;1999.90;999.90;;;32.50;83.10;;;;;;4917194;29;20055;-81
2022/05/19 12:05:53;;;;;;;1999.90;999.90;;;32.30;83.90;;;;;;4917205;29;20127;-85
2022/05/19 12:08:23;;;;;;;1999.90;999.90;;;32.70;83.70;;;;;;4916039;29;20400;-81
2022/05/19 12:11:09;;;;;;;1999.90;999.90;;;32.90;83.90;;;;;;4917588;29;20028;-82
2022/05/19 12:13:35;;;;;;;1999.90;999.90;;;33.70;83.10;;;;;;4915790;29;20084;-84
2022/05/19 12:16:15;;;;;;;1999.90;999.90;;;33.70;81.80;;;;;;4916652;29;20036;-83
2022/05/19 12:18:59;;;;;;;1999.90;999.90;;;33.20;82.50;;;;;;4916191;29;20043;-83
2022/05/19 12:21:48;;;;;;;1999.90;999.90;;;32.40;83.40;;;;;;4916985;29;20053;-82
2022/05/19 12:24:14;;;;;;;1999.90;999.90;;;31.70;85.30;;;;;;4921581;29;20032;-82
2022/05/19 12:26:58;;;;;;;1999.90;999.90;;;31.20;84.00;;;;;;4916157;29;20031;-82
2022/05/19 12:29:32;;;;;;;1999.90;999.90;;;29.40;86.40;;;;;;4917234;29;20094;-82
2022/05/19 12:32:22;;;;;;;1999.90;999.90;;;28.80;88.10;;;;;;4918883;29;20017;-80
2022/05/19 12:35:00;;;;;;;1999.90;999.90;;;29.60;89.90;;;;;;4914609;29;20413;-82
2022/05/19 12:37:33;;;;;;;1999.90;999.90;;;29.60;91.40;;;;;;4917008;29;20110;-84
2022/05/19 12:40:22;;;;;;;1999.90;999.90;;;28.90;91.40;;;;;;4920053;29;20420;-84
2022/05/19 12:42:50;;;;;;;1999.90;999.90;;;28.90;91.70;;;;;;4915958;29;20046;-80
2022/05/19 12:45:27;;;;;;;1999.90;999.90;;;28.50;92.00;;;;;;4913800;29;20828;-85
2022/05/19 12:48:25;;;;;;;1999.90;999.90;;;27.80;93.10;;;;;;4917072;29;20864;-81